Time,TemperatureF,DewpointF,PressureIn,WindDirection,WindDirectionDegrees,WindSpeedMPH,WindSpeedGustMPH,Humidity,HourlyPrecipIn,Conditions,Clouds,dailyrainin,SoftwareType,DateUTC
2013-09-01 00:00:00,74.0,-99.9,-100.00,ESE,111,3.0,6.0,-999,0.00,,,0.00,,2013-09-01 05:00:00,
2013-09-01 00:43:00,74.0,-99.9,-100.00,ESE,111,3.0,6.0,-999,0.00,,,0.00,,2013-09-01 05:43:00,
2013-09-01 00:52:00,74.0,-99.9,-100.00,ESE,111,3.0,6.0,-999,0.00,,,0.00,,2013-09-01 05:52:00,
2013-09-01 01:00:00,72.0,-99.9,-100.00,SSE,166,3.0,4.0,-999,0.00,,,0.00,,2013-09-01 06:00:00,
2013-09-01 01:42:00,72.0,-99.9,-100.00,SSE,166,3.0,4.0,-999,0.00,,,0.00,,2013-09-01 06:42:00,
2013-09-01 01:52:00,72.0,-99.9,-100.00,SSE,166,3.0,4.0,-999,0.00,,,0.00,,2013-09-01 06:52:00,
2013-09-01 02:00:00,71.0,-99.9,-100.00,South,173,3.0,6.0,-999,0.00,,,0.00,,2013-09-01 07:00:00,
2013-09-01 02:42:00,71.0,-99.9,-100.00,South,173,3.0,6.0,-999,0.00,,,0.00,,2013-09-01 07:42:00,
2013-09-01 02:52:00,71.0,-99.9,-100.00,South,173,3.0,6.0,-999,0.00,,,0.00,,2013-09-01 07:52:00,
2013-09-01 03:00:00,71.0,-99.9,-100.00,SSE,161,1.0,3.0,-999,0.00,,,0.00,,2013-09-01 08:00:00,
2013-09-01 03:43:00,71.0,-99.9,-100.00,SSE,161,1.0,3.0,-999,0.00,,,0.00,,2013-09-01 08:43:00,
2013-09-01 03:52:00,71.0,-99.9,-100.00,SSE,161,1.0,3.0,-999,0.00,,,0.00,,2013-09-01 08:52:00,
2013-09-01 04:00:00,71.0,-99.9,-100.00,NE,37,1.0,2.0,-999,0.00,,,0.00,,2013-09-01 09:00:00,
2013-09-01 04:43:00,71.0,-99.9,-100.00,NE,37,1.0,2.0,-999,0.00,,,0.00,,2013-09-01 09:43:00,
2013-09-01 04:53:00,71.0,-99.9,-100.00,NE,37,1.0,2.0,-999,0.00,,,0.00,,2013-09-01 09:53:00,
2013-09-01 05:00:00,71.0,-99.9,-100.00,WSW,241,1.0,2.0,-999,0.00,,,0.00,,2013-09-01 10:00:00,
2013-09-01 05:42:00,71.0,-99.9,-100.00,WSW,241,1.0,2.0,-999,0.00,,,0.00,,2013-09-01 10:42:00,
2013-09-01 05:53:00,71.0,-99.9,-100.00,WSW,241,1.0,2.0,-999,0.00,,,0.00,,2013-09-01 10:53:00,
2013-09-01 06:00:00,70.0,-99.9,-100.00,West,260,2.0,7.0,-999,0.03,,,0.03,,2013-09-01 11:00:00,
2013-09-01 06:42:00,70.0,-99.9,-100.00,West,260,2.0,7.0,-999,0.03,,,0.03,,2013-09-01 11:42:00,
2013-09-01 06:52:00,70.0,-99.9,-100.00,West,260,2.0,7.0,-999,0.03,,,0.03,,2013-09-01 11:52:00,
2013-09-01 08:00:00,73.0,-99.9,-100.00,SW,220,5.0,14.0,-999,0.00,,,0.08,,2013-09-01 13:00:00,
2013-09-01 08:42:00,73.0,-99.9,-100.00,SW,220,5.0,14.0,-999,0.00,,,0.08,,2013-09-01 13:42:00,
2013-09-01 08:52:00,73.0,-99.9,-100.00,SW,220,5.0,14.0,-999,0.00,,,0.08,,2013-09-01 13:52:00,
2013-09-01 09:00:00,76.0,-99.9,-100.00,WNW,282,3.0,7.0,-999,0.00,,,0.08,,2013-09-01 14:00:00,
2013-09-01 09:42:00,76.0,-99.9,-100.00,WNW,282,3.0,7.0,-999,0.00,,,0.08,,2013-09-01 14:42:00,
2013-09-01 09:52:00,76.0,-99.9,-100.00,WNW,282,3.0,7.0,-999,0.00,,,0.08,,2013-09-01 14:52:00,
2013-09-01 10:00:00,76.0,-99.9,-100.00,WNW,286,4.0,11.0,-999,0.00,,,0.08,,2013-09-01 15:00:00,
2013-09-01 10:45:00,76.0,-99.9,-100.00,WNW,286,4.0,11.0,-999,0.00,,,0.08,,2013-09-01 15:45:00,
2013-09-01 10:55:00,76.0,-99.9,-100.00,WNW,286,4.0,11.0,-999,0.00,,,0.08,,2013-09-01 15:55:00,
2013-09-01 11:00:00,79.0,-99.9,-100.00,NW,308,4.0,13.0,-999,0.00,,,0.08,,2013-09-01 16:00:00,
2013-09-01 11:43:00,79.0,-99.9,-100.00,NW,308,4.0,13.0,-999,0.00,,,0.08,,2013-09-01 16:43:00,
2013-09-01 11:53:00,79.0,-99.9,-100.00,NW,308,4.0,13.0,-999,0.00,,,0.08,,2013-09-01 16:53:00,
2013-09-01 12:00:00,81.0,-99.9,-100.00,NW,320,3.0,10.0,-999,0.00,,,0.08,,2013-09-01 17:00:00,
2013-09-01 12:42:00,81.0,-99.9,-100.00,NW,320,3.0,10.0,-999,0.00,,,0.08,,2013-09-01 17:42:00,
2013-09-01 12:52:00,81.0,-99.9,-100.00,NW,320,3.0,10.0,-999,0.00,,,0.08,,2013-09-01 17:52:00,
2013-09-01 13:00:00,86.0,-99.9,-100.00,WNW,285,2.0,10.0,-999,0.00,,,0.08,,2013-09-01 18:00:00,
2013-09-01 13:42:00,86.0,-99.9,-100.00,WNW,285,2.0,10.0,-999,0.00,,,0.08,,2013-09-01 18:42:00,
2013-09-01 13:52:00,86.0,-99.9,-100.00,WNW,285,2.0,10.0,-999,0.00,,,0.08,,2013-09-01 18:52:00,
2013-09-01 14:00:00,85.0,-99.9,-100.00,East,87,1.0,10.0,-999,0.00,,,0.08,,2013-09-01 19:00:00,
2013-09-01 14:42:00,85.0,-99.9,-100.00,East,87,1.0,10.0,-999,0.00,,,0.08,,2013-09-01 19:42:00,
2013-09-01 14:52:00,85.0,-99.9,-100.00,East,87,1.0,10.0,-999,0.00,,,0.08,,2013-09-01 19:52:00,
2013-09-01 15:00:00,85.0,-99.9,-100.00,WNW,282,3.0,16.0,-999,0.00,,,0.08,,2013-09-01 20:00:00,
2013-09-01 15:42:00,85.0,-99.9,-100.00,WNW,282,3.0,16.0,-999,0.00,,,0.08,,2013-09-01 20:42:00,
2013-09-01 15:52:00,85.0,-99.9,-100.00,WNW,282,3.0,16.0,-999,0.00,,,0.08,,2013-09-01 20:52:00,
2013-09-01 16:00:00,85.0,-99.9,-100.00,NW,307,2.0,8.0,-999,0.00,,,0.08,,2013-09-01 21:00:00,
2013-09-01 16:44:00,85.0,-99.9,-100.00,NW,307,2.0,8.0,-999,0.00,,,0.08,,2013-09-01 21:44:00,
2013-09-01 16:55:00,85.0,-99.9,-100.00,NW,307,2.0,8.0,-999,0.00,,,0.08,,2013-09-01 21:55:00,
2013-09-01 17:00:00,85.0,-99.9,-100.00,WNW,284,1.0,8.0,-999,0.00,,,0.08,,2013-09-01 22:00:00,
2013-09-01 17:43:00,85.0,-99.9,-100.00,WNW,284,1.0,8.0,-999,0.00,,,0.08,,2013-09-01 22:43:00,
2013-09-01 17:54:00,85.0,-99.9,-100.00,WNW,284,1.0,8.0,-999,0.00,,,0.08,,2013-09-01 22:54:00,
2013-09-01 18:00:00,82.0,-99.9,-100.00,South,189,1.0,7.0,-999,0.00,,,0.08,,2013-09-01 23:00:00,
2013-09-01 18:42:00,82.0,-99.9,-100.00,South,189,1.0,7.0,-999,0.00,,,0.08,,2013-09-01 23:42:00,
2013-09-01 18:53:00,82.0,-99.9,-100.00,South,189,1.0,7.0,-999,0.00,,,0.08,,2013-09-01 23:53:00,
2013-09-01 19:00:00,79.0,-99.9,-100.00,SW,233,1.0,7.0,-999,0.00,,,0.08,,2013-09-02 00:00:00,
2013-09-01 19:52:00,79.0,-99.9,-100.00,SW,233,1.0,7.0,-999,0.00,,,0.08,,2013-09-02 00:52:00,
2013-09-01 20:00:00,76.0,-99.9,-100.00,WSW,256,1.0,6.0,-999,0.00,,,0.08,,2013-09-02 01:00:00,
2013-09-01 20:42:00,76.0,-99.9,-100.00,WSW,256,1.0,6.0,-999,0.00,,,0.08,,2013-09-02 01:42:00,
2013-09-01 20:53:00,76.0,-99.9,-100.00,WSW,256,1.0,6.0,-999,0.00,,,0.08,,2013-09-02 01:53:00,
2013-09-01 21:00:00,74.0,-99.9,-100.00,NNW,346,2.0,8.0,-999,0.00,,,0.08,,2013-09-02 02:00:00,
2013-09-01 21:42:00,74.0,-99.9,-100.00,NNW,346,2.0,8.0,-999,0.00,,,0.08,,2013-09-02 02:42:00,
2013-09-01 21:52:00,74.0,-99.9,-100.00,NNW,346,2.0,8.0,-999,0.00,,,0.08,,2013-09-02 02:52:00,
2013-09-01 22:00:00,71.0,-99.9,-100.00,NNW,342,1.0,6.0,-999,0.00,,,0.08,,2013-09-02 03:00:00,
2013-09-01 22:44:00,71.0,-99.9,-100.00,NNW,342,1.0,6.0,-999,0.00,,,0.08,,2013-09-02 03:44:00,
2013-09-01 22:56:00,71.0,-99.9,-100.00,NNW,342,1.0,6.0,-999,0.00,,,0.08,,2013-09-02 03:56:00,
2013-09-01 23:00:00,69.0,-99.9,-100.00,North,359,1.0,9.0,-999,0.00,,,0.08,,2013-09-02 04:00:00,
2013-09-01 23:44:00,69.0,-99.9,-100.00,North,359,1.0,9.0,-999,0.00,,,0.08,,2013-09-02 04:44:00,
2013-09-01 23:54:00,69.0,-99.9,-100.00,North,359,1.0,9.0,-999,0.00,,,0.08,,2013-09-02 04:54:00,